Aviation Digital Data Service (ADDS)

Output produced by METARs form (0803 UTC 14 December 2017)
found at http://aviationweather.gov/adds/metars/
 
KFAY 140522Z 1406/1506 22010KT P6SM SKC WS020/24040KT 
     FM141000 23008KT P6SM SKC 
     FM141700 27008KT P6SM SKC 
     FM150000 VRB04KT P6SM FEW250